| time (UTC) | temp C | wind direction | speed KPH | gust KPH | rain 1hr cm | rain 24hr cm | rain mn cm | humidity % | barometer mb |
| 20260906233100 | 23 | 179 | 12.9 | 25.7 | 0.00 | 0.00 | 0.00 | 16 | 937.6 |
| 20260906233002 | 23 | 198 | 14.5 | 25.7 | 0.00 | 0.00 | 0.00 | 16 | 937.6 |
| 20260906231555 | 23 | 202 | 14.5 | 37.0 | 0.00 | 0.00 | 0.00 | 18 | 937.6 |
| 20260906230032 | 23 | 203 | 9.7 | 32.2 | 0.00 | 0.00 | 0.00 | 18 | 937.5 |
| 20260906224518 | 23 | 172 | 16.1 | 35.4 | 0.00 | 0.00 | 0.00 | 16 | 937.7 |
| 20260906223058 | 23 | 197 | 16.1 | 30.6 | 0.00 | 0.00 | 0.00 | 15 | 937.8 |
| 20260906221544 | 24 | 175 | 22.5 | 35.4 | 0.00 | 0.00 | 0.00 | 14 | 938.0 |
| 20260906220037 | 25 | 147 | 20.9 | 35.4 | 0.00 | 0.00 | 0.00 | 13 | 937.9 |
| 20260906214524 | 24 | 140 | 20.9 | 35.4 | 0.00 | 0.00 | 0.00 | 14 | 938.0 |
| 20260906213050 | 26 | 166 | 20.9 | 40.2 | 0.00 | 0.00 | 0.00 | 12 | 938.2 |
| 20260906211521 | 25 | 267 | 20.9 | 40.2 | 0.00 | 0.00 | 0.00 | 14 | 938.1 |
| 20260906210007 | 25 | 192 | 24.1 | 46.7 | 0.00 | 0.00 | 0.00 | 13 | 938.5 |
| 20260906204551 | 24 | 217 | 19.3 | 35.4 | 0.00 | 0.00 | 0.00 | 14 | 938.8 |
| 20260906203032 | 25 | 145 | 16.1 | 40.2 | 0.00 | 0.00 | 0.00 | 14 | 938.7 |
| 20260906201514 | 25 | 210 | 25.7 | 40.2 | 0.00 | 0.00 | 0.00 | 14 | 938.9 |
| 20260906200114 | 25 | 223 | 11.3 | 29.0 | 0.00 | 0.00 | 0.00 | 15 | 938.7 |
| 20260906200002 | 25 | 159 | 14.5 | 29.0 | 0.00 | 0.00 | 0.00 | 15 | 938.7 |
| 20260906194538 | 24 | 152 | 19.3 | 35.4 | 0.00 | 0.00 | 0.00 | 15 | 938.7 |
| 20260906193020 | 24 | 152 | 17.7 | 33.8 | 0.00 | 0.00 | 0.00 | 16 | 938.9 |
| 20260906191508 | 24 | 166 | 22.5 | 30.6 | 0.00 | 0.00 | 0.00 | 15 | 938.8 |
| 20260906190111 | 23 | 191 | 20.9 | 43.5 | 0.00 | 0.00 | 0.00 | 16 | 939.2 |
| 20260906184533 | 23 | 152 | 16.1 | 30.6 | 0.00 | 0.00 | 0.00 | 17 | 939.7 |
| 20260906183106 | 23 | 188 | 19.3 | 33.8 | 0.00 | 0.00 | 0.00 | 17 | 939.9 |
| 20260906183003 | 23 | 173 | 22.5 | 32.2 | 0.00 | 0.00 | 0.00 | 17 | 939.9 |
| 20260906181542 | 23 | 173 | 19.3 | 38.6 | 0.00 | 0.00 | 0.00 | 17 | 940.0 |
| 20260906180019 | 23 | 123 | 19.3 | 27.4 | 0.00 | 0.00 | 0.00 | 20 | 940.1 |
| 20260906174601 | 22 | 123 | 17.7 | 29.0 | 0.00 | 0.00 | 0.00 | 19 | 940.3 |
| 20260906173041 | 22 | 103 | 9.7 | 32.2 | 0.00 | 0.00 | 0.00 | 21 | 940.7 |
| 20260906171516 | 21 | 119 | 24.1 | 37.0 | 0.00 | 0.00 | 0.00 | 21 | 940.7 |
| 20260906170057 | 21 | 130 | 22.5 | 32.2 | 0.00 | 0.00 | 0.00 | 22 | 940.9 |
| 20260906164535 | 21 | 119 | 11.3 | 24.1 | 0.00 | 0.00 | 0.00 | 22 | 941.0 |
| 20260906163020 | 21 | 118 | 11.3 | 27.4 | 0.00 | 0.00 | 0.00 | 22 | 941.0 |
| 20260906161556 | 20 | 146 | 12.9 | 24.1 | 0.00 | 0.00 | 0.00 | 24 | 941.1 |
| 20260906160038 | 19 | 161 | 12.9 | 20.9 | 0.00 | 0.00 | 0.00 | 26 | 941.2 |
| 20260906154520 | 19 | 123 | 11.3 | 17.7 | 0.00 | 0.00 | 0.00 | 25 | 941.4 |
| 20260906153057 | 18 | 127 | 14.5 | 22.5 | 0.00 | 0.00 | 0.00 | 26 | 941.5 |
| 20260906153002 | 18 | 131 | 14.5 | 22.5 | 0.00 | 0.00 | 0.00 | 26 | 941.6 |
| 20260906151543 | 18 | 121 | 12.9 | 24.1 | 0.00 | 0.00 | 0.00 | 27 | 941.6 |
| 20260906150030 | 18 | 126 | 9.7 | 20.9 | 0.00 | 0.00 | 0.00 | 27 | 941.6 |
| 20260906144516 | 17 | 130 | 14.5 | 20.9 | 0.00 | 0.00 | 0.00 | 27 | 941.6 |
| 20260906143056 | 17 | 101 | 11.3 | 17.7 | 0.00 | 0.00 | 0.00 | 27 | 941.6 |
| 20260906141543 | 16 | 120 | 12.9 | 19.3 | 0.00 | 0.00 | 0.00 | 28 | 941.6 |
| 20260906140044 | 16 | 100 | 12.9 | 19.3 | 0.00 | 0.00 | 0.00 | 28 | 941.7 |
| 20260906134511 | 15 | 115 | 12.9 | 17.7 | 0.00 | 0.00 | 0.00 | 28 | 941.7 |
| 20260906133117 | 15 | 90 | 11.3 | 17.7 | 0.00 | 0.00 | 0.00 | 29 | 941.6 |
| 20260906133004 | 15 | 122 | 12.9 | 17.7 | 0.00 | 0.00 | 0.00 | 29 | 941.5 |
| 20260906131546 | 15 | 107 | 12.9 | 20.9 | 0.00 | 0.00 | 0.00 | 29 | 941.5 |
| 20260906130028 | 15 | 121 | 14.5 | 20.9 | 0.00 | 0.00 | 0.00 | 28 | 941.4 |
| 20260906124507 | 15 | 121 | 11.3 | 19.3 | 0.00 | 0.00 | 0.00 | 28 | 941.3 |
| 20260906123051 | 15 | 130 | 14.5 | 22.5 | 0.00 | 0.00 | 0.00 | 27 | 941.4 |
| 20260906121536 | 16 | 128 | 14.5 | 20.9 | 0.00 | 0.00 | 0.00 | 28 | 941.4 |
| 20260906120023 | 16 | 136 | 11.3 | 24.1 | 0.00 | 0.00 | 0.00 | 28 | 941.5 |
| 20260906114514 | 15 | 135 | 12.9 | 19.3 | 0.00 | 0.00 | 0.00 | 28 | 941.5 |
| 20260906113047 | 15 | 117 | 11.3 | 25.7 | 0.00 | 0.00 | 0.00 | 27 | 941.6 |
| 20260906111538 | 16 | 142 | 12.9 | 22.5 | 0.00 | 0.00 | 0.00 | 28 | 941.5 |
| 20260906110018 | 16 | 122 | 14.5 | 24.1 | 0.00 | 0.00 | 0.00 | 27 | 941.5 |
| 20260906104600 | 16 | 146 | 14.5 | 22.5 | 0.00 | 0.00 | 0.00 | 27 | 941.5 |
| 20260906104502 | 16 | 151 | 14.5 | 22.5 | 0.00 | 0.00 | 0.00 | 27 | 941.4 |
| 20260906103046 | 16 | 128 | 11.3 | 22.5 | 0.00 | 0.00 | 0.00 | 27 | 941.3 |
| 20260906101532 | 15 | 118 | 9.7 | 14.5 | 0.00 | 0.00 | 0.00 | 28 | 941.3 |
| 20260906100015 | 13 | 160 | 1.6 | 6.4 | 0.00 | 0.00 | 0.00 | 40 | 941.5 |
| 20260906094609 | 12 | 182 | 4.8 | 11.3 | 0.00 | 0.00 | 0.00 | 47 | 941.3 |
| 20260906094502 | 12 | 182 | 4.8 | 11.3 | 0.00 | 0.00 | 0.00 | 47 | 941.3 |
| 20260906093054 | 13 | 184 | 6.4 | 9.7 | 0.00 | 0.00 | 0.00 | 41 | 941.4 |
| 20260906091517 | 16 | 209 | 9.7 | 16.1 | 0.00 | 0.00 | 0.00 | 28 | 941.4 |
| 20260906090135 | 17 | 114 | 11.3 | 20.9 | 0.00 | 0.00 | 0.00 | 26 | 941.3 |
| 20260906084550 | 17 | 122 | 11.3 | 17.7 | 0.00 | 0.00 | 0.00 | 24 | 941.3 |
| 20260906083035 | 18 | 109 | 8.0 | 22.5 | 0.00 | 0.00 | 0.00 | 23 | 941.4 |
| 20260906081512 | 18 | 145 | 9.7 | 14.5 | 0.00 | 0.00 | 0.00 | 24 | 941.5 |
| 20260906080105 | 18 | 136 | 8.0 | 14.5 | 0.00 | 0.00 | 0.00 | 23 | 941.6 |
| 20260906074549 | 18 | 106 | 9.7 | 19.3 | 0.00 | 0.00 | 0.00 | 23 | 941.7 |
| 20260906073024 | 18 | 122 | 8.0 | 14.5 | 0.00 | 0.00 | 0.00 | 22 | 941.6 |
| 20260906071559 | 18 | 97 | 8.0 | 14.5 | 0.00 | 0.00 | 0.00 | 22 | 941.6 |
| 20260906071501 | 18 | 94 | 9.7 | 14.5 | 0.00 | 0.00 | 0.00 | 22 | 941.6 |
| 20260906070045 | 19 | 96 | 11.3 | 16.1 | 0.00 | 0.00 | 0.00 | 21 | 941.5 |
| 20260906064534 | 18 | 150 | 6.4 | 14.5 | 0.00 | 0.00 | 0.00 | 21 | 941.5 |
| 20260906063013 | 19 | 111 | 9.7 | 16.1 | 0.00 | 0.00 | 0.00 | 20 | 941.6 |
| 20260906061601 | 19 | 78 | 9.7 | 16.1 | 0.00 | 0.00 | 0.00 | 21 | 941.6 |
| 20260906060032 | 18 | 107 | 6.4 | 11.3 | 0.00 | 0.00 | 0.00 | 21 | 941.8 |
| 20260906054509 | 18 | 102 | 6.4 | 11.3 | 0.00 | 0.00 | 0.00 | 21 | 941.8 |
| 20260906053106 | 18 | 69 | 6.4 | 9.7 | 0.00 | 0.00 | 0.00 | 21 | 941.9 |
| 20260906051537 | 18 | 92 | 9.7 | 16.1 | 0.00 | 0.00 | 0.00 | 21 | 942.1 |
| 20260906050018 | 18 | 117 | 8.0 | 12.9 | 0.00 | 0.00 | 0.00 | 21 | 942.3 |
| 20260906044604 | 19 | 117 | 9.7 | 16.1 | 0.00 | 0.00 | 0.00 | 21 | 942.4 |
| 20260906043043 | 19 | 90 | 9.7 | 16.1 | 0.00 | 0.00 | 0.00 | 21 | 942.5 |
| 20260906041537 | 19 | 109 | 11.3 | 14.5 | 0.00 | 0.00 | 0.00 | 21 | 942.6 |
| 20260906040012 | 19 | 110 | 9.7 | 16.1 | 0.00 | 0.00 | 0.00 | 21 | 942.5 |
| 20260906034554 | 18 | 103 | 6.4 | 12.9 | 0.00 | 0.00 | 0.00 | 21 | 942.6 |
| 20260906033044 | 20 | 90 | 9.7 | 12.9 | 0.00 | 0.00 | 0.00 | 19 | 942.6 |
| 20260906031522 | 20 | 80 | 8.0 | 11.3 | 0.00 | 0.00 | 0.00 | 19 | 942.8 |
| 20260906030100 | 20 | 76 | 4.8 | 9.7 | 0.00 | 0.00 | 0.00 | 19 | 942.8 |
| 20260906024600 | 20 | 158 | 3.2 | 8.0 | 0.00 | 0.00 | 0.00 | 18 | 942.8 |
| 20260906023026 | 20 | 153 | 1.6 | 4.8 | 0.00 | 0.00 | 0.00 | 19 | 942.6 |
| 20260906021506 | 20 | 221 | 4.8 | 8.0 | 0.00 | 0.00 | 0.00 | 19 | 942.5 |
| 20260906020047 | 21 | 209 | 6.4 | 11.3 | 0.00 | 0.00 | 0.00 | 19 | 942.6 |
| 20260906014538 | 21 | 197 | 9.7 | 16.1 | 0.00 | 0.00 | 0.00 | 17 | 942.6 |
| 20260906013103 | 22 | 170 | 11.3 | 17.7 | 0.00 | 0.00 | 0.00 | 16 | 942.7 |
| 20260906013002 | 22 | 184 | 9.7 | 19.3 | 0.00 | 0.00 | 0.00 | 17 | 942.7 |
| 20260906011551 | 23 | 223 | 8.0 | 20.9 | 0.00 | 0.00 | 0.00 | 17 | 942.8 |
| 20260906010035 | 23 | 189 | 9.7 | 24.1 | 0.00 | 0.00 | 0.00 | 16 | 942.8 |
| 20260906004550 | 23 | 219 | 8.0 | 20.9 | 0.00 | 0.00 | 0.00 | 16 | 942.7 |
| 20260906003030 | 23 | 168 | 14.5 | 24.1 | 0.00 | 0.00 | 0.00 | 16 | 942.7 |
| 20260906001510 | 24 | 189 | 11.3 | 19.3 | 0.00 | 0.00 | 0.00 | 15 | 942.6 |
| 20260906000044 | 25 | 172 | 12.9 | 22.5 | 0.00 | 0.00 | 0.00 | 15 | 942.5 |
| 20260905234526 | 25 | 196 | 12.9 | 37.0 | 0.00 | 0.00 | 0.00 | 16 | 942.5 |